createdAt,value
2018-07-13T00:00:56.025Z,23.04
2018-07-13T00:03:26.868Z,23.02
2018-07-13T00:05:55.446Z,22.96
2018-07-13T00:08:24.467Z,22.96
2018-07-13T00:10:56.501Z,22.92
2018-07-13T00:13:25.390Z,22.90
2018-07-13T00:16:03.297Z,22.88
2018-07-13T00:18:32.803Z,22.85
2018-07-13T00:21:01.421Z,22.79
2018-07-13T00:23:32.249Z,22.79
2018-07-13T00:26:00.811Z,22.71
2018-07-13T00:28:33.097Z,22.68
2018-07-13T00:31:02.139Z,22.64
2018-07-13T00:33:30.798Z,22.63
2018-07-13T00:35:59.368Z,22.60
2018-07-13T00:38:28.316Z,22.58
2018-07-13T00:40:56.808Z,22.59
2018-07-13T00:43:25.369Z,22.56
2018-07-13T00:45:54.151Z,22.55
2018-07-13T00:48:22.711Z,22.53
2018-07-13T00:50:51.297Z,22.52
2018-07-13T00:53:20.231Z,22.50
2018-07-13T00:55:49.027Z,22.47
2018-07-13T00:58:17.588Z,22.44
2018-07-13T01:00:46.572Z,22.40
2018-07-13T01:03:15.133Z,22.38
2018-07-13T01:05:45.085Z,22.35
2018-07-13T01:08:14.071Z,22.34
2018-07-13T01:10:42.707Z,22.31
2018-07-13T01:13:11.236Z,22.28
2018-07-13T01:15:40.074Z,22.25
2018-07-13T01:18:08.674Z,22.22
2018-07-13T01:20:37.204Z,22.19
2018-07-13T01:23:12.755Z,22.19
2018-07-13T01:25:41.269Z,22.16
2018-07-13T01:28:09.905Z,22.11
2018-07-13T01:30:38.442Z,22.09
2018-07-13T01:33:07.135Z,22.09
2018-07-13T01:35:36.162Z,22.03
2018-07-13T01:38:05.517Z,22.01
2018-07-13T01:40:34.152Z,22.01
2018-07-13T01:43:03.130Z,22.01
2018-07-13T01:45:31.721Z,22.00
2018-07-13T01:48:00.310Z,21.97
2018-07-13T01:50:29.339Z,21.93
2018-07-13T01:52:57.988Z,21.92
2018-07-13T01:55:26.575Z,21.93
2018-07-13T01:58:01.504Z,21.88
2018-07-13T02:00:30.117Z,21.87
2018-07-13T02:02:58.671Z,21.85
2018-07-13T02:05:27.668Z,21.83
2018-07-13T02:08:03.311Z,21.81
2018-07-13T02:10:33.224Z,21.80
2018-07-13T02:13:02.886Z,21.78
2018-07-13T02:15:31.461Z,21.75
2018-07-13T02:18:00.104Z,21.71
2018-07-13T02:20:28.792Z,21.68
2018-07-13T02:22:57.443Z,21.68
2018-07-13T02:25:26.011Z,21.67
2018-07-13T02:27:54.603Z,21.65
2018-07-13T02:30:29.844Z,21.64
2018-07-13T02:32:58.399Z,21.64
2018-07-13T02:35:27.460Z,21.62
2018-07-13T02:37:56.092Z,21.59
2018-07-13T02:40:24.721Z,21.54
2018-07-13T02:42:53.250Z,21.53
2018-07-13T02:45:21.972Z,21.49
2018-07-13T02:47:51.891Z,21.48
2018-07-13T02:50:20.540Z,21.46
2018-07-13T02:52:59.655Z,21.44
2018-07-13T02:55:28.260Z,21.41
2018-07-13T02:57:58.350Z,21.38
2018-07-13T03:00:27.546Z,21.36
2018-07-13T03:03:00.968Z,21.33
2018-07-13T03:05:29.565Z,21.30
2018-07-13T03:07:58.953Z,21.29
2018-07-13T03:10:27.499Z,21.28
2018-07-13T03:12:56.121Z,21.27
2018-07-13T03:15:25.116Z,21.26
2018-07-13T03:17:53.689Z,21.24
2018-07-13T03:20:22.375Z,21.24
2018-07-13T03:22:51.658Z,21.22
2018-07-13T03:25:20.299Z,21.21
2018-07-13T03:27:48.862Z,21.17
2018-07-13T03:30:17.408Z,21.17
2018-07-13T03:32:46.944Z,21.15
2018-07-13T03:35:15.513Z,21.15
2018-07-13T03:37:44.456Z,21.13
2018-07-13T03:40:13.029Z,21.14
2018-07-13T03:42:41.670Z,21.15
2018-07-13T03:45:10.331Z,21.13
2018-07-13T03:47:38.911Z,21.11
2018-07-13T03:50:08.026Z,21.11
2018-07-13T03:52:36.596Z,21.12
2018-07-13T03:55:05.934Z,21.14
2018-07-13T03:57:42.783Z,21.16
2018-07-13T04:00:16.398Z,21.16
2018-07-13T04:02:45.499Z,21.18
2018-07-13T04:05:14.073Z,21.18
2018-07-13T04:07:46.496Z,21.17
2018-07-13T04:10:15.388Z,21.15
2018-07-13T04:12:44.023Z,21.15
2018-07-13T04:15:12.593Z,21.16
2018-07-13T04:17:41.646Z,21.17
2018-07-13T04:20:10.292Z,21.20
2018-07-13T04:22:43.453Z,21.23
2018-07-13T04:25:12.723Z,21.25
2018-07-13T04:27:41.607Z,21.23
2018-07-13T04:30:10.249Z,21.22
2018-07-13T04:35:14.527Z,21.23
2018-07-13T04:37:47.833Z,21.22
2018-07-13T04:40:16.662Z,21.25
2018-07-13T04:42:45.199Z,21.24
2018-07-13T04:45:13.776Z,21.28
2018-07-13T04:47:43.904Z,21.29
2018-07-13T04:50:12.521Z,21.34
2018-07-13T04:52:41.385Z,21.36
2018-07-13T04:55:10.099Z,21.37
2018-07-13T04:57:38.669Z,21.44
2018-07-13T05:00:08.283Z,21.55
2018-07-13T05:02:37.199Z,21.64
2018-07-13T05:05:06.647Z,21.71
2018-07-13T05:07:38.304Z,21.78
2018-07-13T05:10:07.098Z,21.81
2018-07-13T05:12:36.847Z,21.83
2018-07-13T05:15:06.204Z,21.87
2018-07-13T05:17:38.580Z,21.92
2018-07-13T05:20:07.675Z,21.98
2018-07-13T05:22:36.483Z,22.02
2018-07-13T05:25:05.984Z,22.07
2018-07-13T05:27:36.032Z,22.13
2018-07-13T05:30:13.259Z,22.17
2018-07-13T05:32:42.024Z,22.20
2018-07-13T05:35:16.622Z,22.24
2018-07-13T05:37:45.389Z,22.32
2018-07-13T05:46:57.652Z,22.51
2018-07-13T05:49:26.639Z,22.53
2018-07-13T05:51:55.551Z,22.64
2018-07-13T05:54:24.274Z,22.75
2018-07-13T05:56:54.284Z,22.87
2018-07-13T05:59:22.987Z,22.96
2018-07-13T06:01:51.555Z,23.07
2018-07-13T06:04:21.580Z,23.15
2018-07-13T06:06:51.219Z,23.23
2018-07-13T06:09:19.724Z,23.34
2018-07-13T06:11:48.687Z,23.42
2018-07-13T06:14:17.202Z,23.47
2018-07-13T06:16:45.718Z,23.54
2018-07-13T06:19:14.219Z,23.65
2018-07-13T06:21:43.078Z,23.76
2018-07-13T06:24:12.139Z,23.81
2018-07-13T06:29:24.085Z,23.97
2018-07-13T06:31:52.663Z,24.05
2018-07-13T06:34:21.213Z,24.11
2018-07-13T06:36:50.547Z,24.18
2018-07-13T06:39:19.258Z,24.20
2018-07-13T06:41:47.939Z,24.25
2018-07-13T06:44:16.862Z,24.31
2018-07-13T06:46:47.236Z,24.34
2018-07-13T06:49:16.783Z,24.35
2018-07-13T06:51:45.385Z,24.41
2018-07-13T06:54:17.791Z,24.47
2018-07-13T06:56:46.720Z,24.53
2018-07-13T06:59:16.579Z,24.63
2018-07-13T07:01:45.984Z,24.71
2018-07-13T07:04:31.463Z,24.75
2018-07-13T07:07:16.312Z,24.72
2018-07-13T07:09:51.750Z,24.77
2018-07-13T07:13:28.166Z,24.86
2018-07-13T07:15:56.712Z,24.98
2018-07-13T07:18:25.884Z,25.01
2018-07-13T07:20:55.076Z,25.05
2018-07-13T07:25:58.676Z,25.11
2018-07-13T07:28:27.296Z,25.18
2018-07-13T07:30:56.628Z,25.19
2018-07-13T07:33:25.596Z,25.15
2018-07-13T07:35:54.084Z,25.19
2018-07-13T07:38:22.617Z,25.22
2018-07-13T07:40:51.655Z,25.26
2018-07-13T07:43:20.985Z,25.31
2018-07-13T07:45:50.168Z,25.35
2018-07-13T07:48:18.935Z,25.42
2018-07-13T07:50:47.424Z,25.45
2018-07-13T07:53:15.919Z,25.46
2018-07-13T07:55:44.479Z,25.49
2018-07-13T07:58:13.024Z,25.39
2018-07-13T08:00:41.997Z,25.40
2018-07-13T08:03:10.606Z,25.48
2018-07-13T08:05:45.714Z,25.51
2018-07-13T08:08:14.216Z,25.53
2018-07-13T08:10:45.757Z,25.61
2018-07-13T08:13:14.562Z,25.64
2018-07-13T08:18:22.749Z,25.57
2018-07-13T08:20:51.571Z,25.55
2018-07-13T08:23:21.713Z,25.64
2018-07-13T08:25:51.357Z,25.71
2018-07-13T08:28:20.698Z,25.73
2018-07-13T08:30:55.841Z,25.76
2018-07-13T08:33:24.763Z,25.77
2018-07-13T08:35:53.316Z,25.75
2018-07-13T08:38:21.979Z,25.80
2018-07-13T08:40:50.981Z,25.78
2018-07-13T08:43:19.584Z,25.83
2018-07-13T08:45:48.322Z,25.85
2018-07-13T08:48:22.584Z,25.91
2018-07-13T08:50:51.472Z,25.86
2018-07-13T08:53:20.009Z,25.83
2018-07-13T08:55:52.340Z,25.85
2018-07-13T08:58:20.980Z,25.91
2018-07-13T09:00:54.601Z,25.95
2018-07-13T09:03:23.468Z,26.01
2018-07-13T09:05:52.096Z,26.05
2018-07-13T09:08:20.660Z,26.19
2018-07-13T09:10:49.660Z,26.24
2018-07-13T09:13:18.756Z,26.35
2018-07-13T09:15:52.116Z,26.42
2018-07-13T09:18:20.837Z,26.45
2018-07-13T09:20:49.417Z,26.51
2018-07-13T09:23:18.044Z,26.57
2018-07-13T09:25:46.898Z,26.68
2018-07-13T09:28:15.432Z,26.73
2018-07-13T09:30:44.176Z,26.76
2018-07-13T09:33:12.760Z,26.80
2018-07-13T09:35:41.323Z,26.84
2018-07-13T09:38:11.273Z,26.87
2018-07-13T09:40:39.832Z,26.93
2018-07-13T09:43:08.451Z,27.04
2018-07-13T09:45:37.546Z,26.97
2018-07-13T09:48:06.095Z,27.15
2018-07-13T09:50:34.669Z,27.27
2018-07-13T09:53:03.576Z,27.34
2018-07-13T09:55:32.243Z,27.49
2018-07-13T09:58:05.344Z,27.66
2018-07-13T10:00:42.135Z,27.82
2018-07-13T10:03:10.596Z,27.97
2018-07-13T10:05:44.108Z,28.07
2018-07-13T10:08:12.715Z,28.02
2018-07-13T10:10:41.400Z,27.93
2018-07-13T10:13:10.244Z,28.04
2018-07-13T10:15:38.791Z,28.30
2018-07-13T10:18:12.173Z,28.53
2018-07-13T10:20:40.987Z,28.68
2018-07-13T10:23:16.499Z,28.77
2018-07-13T10:25:50.803Z,28.85
2018-07-13T10:28:19.680Z,28.88
2018-07-13T10:30:49.292Z,28.99
2018-07-13T10:33:19.470Z,29.24
2018-07-13T10:35:49.595Z,29.30
2018-07-13T10:38:18.537Z,29.45
2018-07-13T10:40:57.897Z,29.33
2018-07-13T10:43:27.138Z,29.43
2018-07-13T10:45:55.842Z,29.57
2018-07-13T10:48:24.519Z,29.75
2018-07-13T10:50:53.356Z,29.92
2018-07-13T10:53:21.943Z,30.20
2018-07-13T10:55:50.606Z,30.47
2018-07-13T10:58:22.465Z,30.68
2018-07-13T11:00:52.507Z,30.97
2018-07-13T11:03:24.056Z,31.29
2018-07-13T11:05:53.273Z,31.42
2018-07-13T11:08:23.828Z,31.57
2018-07-13T11:10:52.472Z,31.33
2018-07-13T11:13:25.095Z,31.20
2018-07-13T11:15:53.745Z,31.37
2018-07-13T11:18:24.535Z,31.65
2018-07-13T11:20:53.143Z,31.93
2018-07-13T11:23:21.783Z,32.42
2018-07-13T11:25:52.748Z,32.51
2018-07-13T11:28:21.365Z,32.54
2018-07-13T11:30:53.641Z,32.35
2018-07-13T11:33:22.131Z,32.77
2018-07-13T11:35:50.941Z,33.19
2018-07-13T11:38:20.956Z,33.29
2018-07-13T11:40:52.831Z,33.53
2018-07-13T11:43:21.347Z,33.72
2018-07-13T11:45:55.137Z,33.96
2018-07-13T11:48:23.664Z,34.03
2018-07-13T11:50:52.512Z,33.88
2018-07-13T11:53:25.154Z,33.62
2018-07-13T11:55:53.716Z,33.77
2018-07-13T11:58:22.376Z,34.09
2018-07-13T12:00:52.394Z,34.23
2018-07-13T12:03:20.976Z,34.27
2018-07-13T12:05:49.662Z,34.46
2018-07-13T12:08:18.618Z,34.93
2018-07-13T12:13:25.464Z,35.03
2018-07-13T12:15:58.406Z,35.63
2018-07-13T12:18:27.141Z,35.94
2018-07-13T12:20:55.801Z,36.18
2018-07-13T12:23:24.618Z,36.43
2018-07-13T12:25:53.194Z,36.53
2018-07-13T12:28:22.502Z,36.59
2018-07-13T12:30:51.385Z,36.93
2018-07-13T12:33:20.007Z,37.04
2018-07-13T12:35:50.172Z,37.51
2018-07-13T12:38:19.465Z,36.99
2018-07-13T12:40:48.070Z,36.44
2018-07-13T12:43:16.746Z,37.05
2018-07-13T12:45:45.954Z,37.16
2018-07-13T12:48:15.676Z,37.90
2018-07-13T12:50:45.232Z,38.57
2018-07-13T12:53:18.445Z,38.73
2018-07-13T12:55:47.244Z,39.31
2018-07-13T12:58:15.961Z,39.82
2018-07-13T13:00:45.049Z,40.06
2018-07-13T13:03:19.016Z,39.61
2018-07-13T13:05:47.591Z,40.43
2018-07-13T13:08:17.304Z,40.93
2018-07-13T13:10:46.292Z,41.03
2018-07-13T13:13:16.751Z,41.25
2018-07-13T13:15:45.321Z,41.59
2018-07-13T13:18:14.486Z,42.30
2018-07-13T13:20:44.185Z,42.83
2018-07-13T13:23:13.713Z,43.33
2018-07-13T13:25:44.736Z,43.20
2018-07-13T13:28:13.320Z,43.36
2018-07-13T13:30:42.095Z,44.38
2018-07-13T13:33:10.741Z,45.26
2018-07-13T13:35:39.503Z,44.38
2018-07-13T13:38:08.689Z,43.65
2018-07-13T13:40:37.265Z,42.86
2018-07-13T13:43:06.098Z,42.36
2018-07-13T13:45:34.701Z,42.18
2018-07-13T13:48:04.066Z,42.61
2018-07-13T13:50:40.225Z,42.55
2018-07-13T13:53:09.131Z,42.96
2018-07-13T13:55:37.686Z,43.10
2018-07-13T13:58:06.265Z,43.43
2018-07-13T14:00:34.776Z,42.88
2018-07-13T14:03:04.888Z,42.76
2018-07-13T14:05:39.010Z,42.56
2018-07-13T14:08:07.633Z,43.43
2018-07-13T14:10:39.893Z,44.54
2018-07-13T14:13:08.468Z,46.07
2018-07-13T14:15:37.307Z,47.70
2018-07-13T14:18:06.285Z,47.94
2018-07-13T14:20:34.846Z,46.26
2018-07-13T14:23:03.981Z,45.51
2018-07-13T14:25:32.535Z,44.31
2018-07-13T14:28:01.165Z,42.48
2018-07-13T14:30:30.067Z,41.08
2018-07-13T14:32:58.771Z,41.88
2018-07-13T14:35:34.673Z,43.74
2018-07-13T14:38:04.419Z,45.45
2018-07-13T14:40:35.049Z,46.70
2018-07-13T14:43:03.920Z,48.35
2018-07-13T14:45:44.150Z,48.95
2018-07-13T14:48:12.815Z,49.83
2018-07-13T14:50:42.184Z,49.40
2018-07-13T14:53:10.812Z,49.27
2018-07-13T14:55:40.926Z,49.06
2018-07-13T14:58:09.677Z,49.20
2018-07-13T15:00:38.336Z,50.11
2018-07-13T15:03:07.180Z,48.13
2018-07-13T15:05:37.890Z,46.18
2018-07-13T15:08:06.598Z,44.29
2018-07-13T15:10:36.522Z,42.00
2018-07-13T15:13:05.207Z,40.19
2018-07-13T15:15:34.442Z,39.17
2018-07-13T15:18:04.971Z,38.52
2018-07-13T15:20:33.587Z,37.78
2018-07-13T15:23:02.774Z,37.74
2018-07-13T15:28:10.874Z,40.97
2018-07-13T15:30:39.484Z,42.38
2018-07-13T15:33:08.000Z,43.62
2018-07-13T15:35:37.066Z,44.37
2018-07-13T15:38:06.168Z,45.24
2018-07-13T15:40:34.792Z,45.35
2018-07-13T15:43:09.485Z,45.16
2018-07-13T15:45:38.067Z,45.06
2018-07-13T15:48:06.753Z,45.14
2018-07-13T15:50:35.916Z,44.71
2018-07-13T15:53:09.100Z,43.71
2018-07-13T15:55:43.240Z,42.72
2018-07-13T15:58:11.926Z,42.15
2018-07-13T16:00:40.696Z,41.72
2018-07-13T16:03:09.746Z,41.28
2018-07-13T16:05:38.431Z,40.75
2018-07-13T16:08:07.438Z,40.20
2018-07-13T16:10:36.381Z,40.25
2018-07-13T16:13:05.042Z,39.98
2018-07-13T16:15:34.125Z,39.92
2018-07-13T16:18:03.040Z,39.68
2018-07-13T16:20:34.902Z,39.58
2018-07-13T16:23:03.888Z,39.16
2018-07-13T16:25:32.407Z,38.48
2018-07-13T16:28:01.600Z,38.24
2018-07-13T16:30:30.135Z,38.43
2018-07-13T16:32:58.635Z,38.24
2018-07-13T16:35:27.205Z,38.13
2018-07-13T16:37:55.858Z,38.00
2018-07-13T16:40:31.499Z,38.00
2018-07-13T16:43:00.040Z,37.79
2018-07-13T16:45:28.639Z,37.80
2018-07-13T16:47:57.260Z,37.48
2018-07-13T16:50:25.874Z,37.42
2018-07-13T16:52:54.431Z,37.38
2018-07-13T16:55:23.350Z,37.15
2018-07-13T16:57:54.198Z,37.00
2018-07-13T17:00:22.775Z,37.01
2018-07-13T17:02:51.305Z,36.96
2018-07-13T17:05:19.868Z,36.60
2018-07-13T17:07:48.709Z,36.36
2018-07-13T17:10:17.316Z,36.13
2018-07-13T17:15:25.379Z,35.84
2018-07-13T17:17:53.917Z,35.50
2018-07-13T17:20:22.612Z,35.30
2018-07-13T17:22:51.464Z,35.01
2018-07-13T17:25:20.042Z,34.69
2018-07-13T17:27:49.053Z,34.66
2018-07-13T17:30:17.763Z,34.63
2018-07-13T17:32:46.232Z,34.75
2018-07-13T17:35:14.885Z,34.83
2018-07-13T17:37:43.257Z,34.81
2018-07-13T17:40:12.316Z,34.75
2018-07-13T17:42:40.988Z,34.64
2018-07-13T17:45:09.584Z,34.55
2018-07-13T17:47:38.510Z,34.49
2018-07-13T17:50:08.395Z,34.38
2018-07-13T17:52:36.964Z,34.21
2018-07-13T17:55:06.108Z,34.11
2018-07-13T17:57:34.732Z,33.98
2018-07-13T18:00:04.575Z,33.86
2018-07-13T18:02:33.400Z,33.64
2018-07-13T18:05:02.446Z,33.56
2018-07-13T18:07:31.025Z,33.41
2018-07-13T18:10:00.058Z,33.30
2018-07-13T18:12:28.724Z,33.19
2018-07-13T18:14:57.368Z,33.01
2018-07-13T18:17:26.458Z,32.86
2018-07-13T18:19:55.010Z,32.66
2018-07-13T18:22:28.796Z,32.61
2018-07-13T18:24:57.751Z,32.48
2018-07-13T18:27:26.255Z,32.41
2018-07-13T18:29:54.876Z,32.25
2018-07-13T18:34:52.818Z,31.98
2018-07-13T18:43:06.877Z,31.45
2018-07-13T18:48:38.539Z,31.07
2018-07-13T18:51:07.609Z,30.91
2018-07-13T18:53:36.922Z,30.74
2018-07-13T18:58:38.786Z,30.51
2018-07-13T19:01:10.893Z,30.39
2018-07-13T19:03:39.415Z,30.28
2018-07-13T19:06:08.011Z,30.16
2018-07-13T19:08:36.908Z,30.10
2018-07-13T19:11:07.168Z,29.99
2018-07-13T19:13:35.727Z,29.89
2018-07-13T19:18:40.747Z,29.71
2018-07-13T19:21:09.986Z,29.64
2018-07-13T19:23:42.435Z,29.59
2018-07-13T19:26:11.024Z,29.50
2018-07-13T19:28:39.945Z,29.44
2018-07-13T19:31:08.568Z,29.36
2018-07-13T19:33:37.170Z,29.31
2018-07-13T19:36:06.406Z,29.25
2018-07-13T19:38:37.494Z,29.19
2018-07-13T19:41:06.380Z,29.15
2018-07-13T19:43:35.304Z,29.10
2018-07-13T19:46:04.493Z,29.02
2018-07-13T19:48:33.628Z,28.99
2018-07-13T19:51:02.961Z,28.97
2018-07-13T19:53:31.886Z,28.92
2018-07-13T19:56:00.681Z,28.89
2018-07-13T20:27:16.994Z,28.38
2018-07-13T20:29:45.508Z,28.39
2018-07-13T20:32:14.092Z,28.39
2018-07-13T20:34:43.429Z,28.39
2018-07-13T20:37:12.170Z,28.34
2018-07-13T20:39:40.871Z,28.33
2018-07-13T20:45:14.736Z,28.29
2018-07-13T20:47:43.463Z,28.23
2018-07-13T20:50:18.167Z,28.22
2018-07-13T20:52:47.397Z,28.19
2018-07-13T20:55:21.336Z,28.17
2018-07-13T20:57:50.384Z,28.15
2018-07-13T21:00:19.286Z,28.13
2018-07-13T21:02:54.546Z,28.11
2018-07-13T21:05:24.026Z,28.05
2018-07-13T21:07:53.376Z,27.98
2018-07-13T21:10:22.051Z,27.97
2018-07-13T21:12:50.988Z,27.95
2018-07-13T21:15:20.685Z,27.94
2018-07-13T21:17:53.377Z,27.93
2018-07-13T21:20:22.485Z,27.90
2018-07-13T21:22:51.344Z,27.81
2018-07-13T21:25:20.420Z,27.74
2018-07-13T21:27:49.435Z,27.73
2018-07-13T21:30:19.000Z,27.72
2018-07-13T21:32:49.060Z,27.73
2018-07-13T21:35:17.751Z,27.72
2018-07-13T21:37:46.561Z,27.68
2018-07-13T21:40:16.185Z,27.67
2018-07-13T21:42:51.359Z,27.63
2018-07-13T21:45:21.001Z,27.59
2018-07-13T21:47:56.243Z,27.56
2018-07-13T21:50:25.275Z,27.53
2018-07-13T21:52:57.517Z,27.50
2018-07-13T21:58:00.531Z,27.47
2018-07-13T22:00:30.050Z,27.42
2018-07-13T22:02:59.356Z,27.37
2018-07-13T22:05:32.143Z,27.32
2018-07-13T22:08:01.019Z,27.27
2018-07-13T22:10:31.164Z,27.23
2018-07-13T22:13:00.465Z,27.17
2018-07-13T22:15:29.109Z,27.09
2018-07-13T22:18:04.717Z,27.03
2018-07-13T22:20:33.632Z,26.95
2018-07-13T22:23:03.038Z,26.88
2018-07-13T22:25:31.778Z,26.83
2018-07-13T22:28:03.396Z,26.78
2018-07-13T22:30:33.376Z,26.74
2018-07-13T22:33:01.996Z,26.71
2018-07-13T22:35:34.400Z,26.67
2018-07-13T22:38:03.905Z,26.62
2018-07-13T22:40:32.529Z,26.57
2018-07-13T22:43:01.539Z,26.54
2018-07-13T22:45:30.402Z,26.51
2018-07-13T22:47:59.336Z,26.46
2018-07-13T22:50:29.410Z,26.44
2018-07-13T22:52:59.264Z,26.39
2018-07-13T22:55:27.903Z,26.36
2018-07-13T22:58:00.353Z,26.32
2018-07-13T23:00:28.929Z,26.28
2018-07-13T23:02:57.616Z,26.26
2018-07-13T23:05:26.651Z,26.24
2018-07-13T23:07:55.531Z,26.21
2018-07-13T23:10:28.827Z,26.16
2018-07-13T23:12:57.823Z,26.13
2018-07-13T23:15:26.432Z,26.10
2018-07-13T23:17:54.986Z,26.06
2018-07-13T23:20:25.053Z,26.03
2018-07-13T23:22:53.900Z,26.01
2018-07-13T23:25:22.480Z,25.98
2018-07-13T23:27:51.419Z,25.95
2018-07-13T23:30:24.979Z,25.93
2018-07-13T23:32:53.730Z,25.89
2018-07-13T23:35:22.853Z,25.84
2018-07-13T23:37:52.648Z,25.79
2018-07-13T23:40:21.395Z,25.75
2018-07-13T23:42:57.570Z,25.73
2018-07-13T23:45:26.245Z,25.68
2018-07-13T23:47:54.916Z,25.65
2018-07-13T23:50:24.221Z,25.60
2018-07-13T23:52:52.763Z,25.55
2018-07-13T23:55:25.037Z,25.51
2018-07-13T23:57:54.643Z,25.46
